Time;durP1;ratioP1;P1;durP2;ratioP2;P2;SDS_P1;SDS_P2;PMS_P1;PMS_P2;Temp;Humidity;BMP_temperature;BMP_pressure;BME280_temperature;BME280_humidity;BME280_pressure;Samples;Min_cycle;Max_cycle;Signal;HPM_P1;HPM_P2
2023/07/19 00:00:39;;;;;;;5.55;2.00;;;;;;;-144.47;46.40;52542.28;5031018;28;20021;-69
2023/07/19 00:03:04;;;;;;;7.25;2.58;;;;;;;-144.47;46.63;52536.34;5029200;28;20029;-66
2023/07/19 00:05:30;;;;;;;4.32;1.85;;;;;;;-144.47;46.81;52540.31;5028066;28;20032;-68
2023/07/19 00:07:55;;;;;;;8.52;2.42;;;;;;;-144.47;46.71;52548.25;5027911;28;20030;-67
2023/07/19 00:10:21;;;;;;;16.95;2.45;;;;;;;-144.47;46.86;52516.47;5029130;28;20025;-67
2023/07/19 00:12:46;;;;;;;5.70;1.85;;;;;;;-144.47;46.99;52534.34;5029197;28;20315;-66
2023/07/19 00:15:12;;;;;;;4.88;2.00;;;;;;;-144.47;46.77;52538.31;5028209;28;20498;-66
2023/07/19 00:17:37;;;;;;;5.03;1.80;;;;;;;-144.47;47.19;52522.44;5029662;28;20032;-65
2023/07/19 00:20:04;;;;;;;12.45;2.05;;;;;;;-144.47;47.17;52512.50;5028766;28;20320;-67
2023/07/19 00:22:30;;;;;;;8.25;2.28;;;;;;;-144.47;47.29;52544.28;5028932;28;20472;-66
2023/07/19 00:24:56;;;;;;;6.18;2.30;;;;;;;-144.47;47.34;52552.22;5028128;28;20079;-66
2023/07/19 00:27:21;;;;;;;5.60;2.72;;;;;;;-144.47;47.85;52546.25;5031477;28;20021;-68
2023/07/19 00:29:46;;;;;;;10.18;2.63;;;;;;;-144.47;48.01;52540.31;5032341;28;20029;-67
2023/07/19 00:32:12;;;;;;;5.25;2.00;;;;;;;-144.47;47.86;52532.38;5028783;28;20545;-64
2023/07/19 00:34:37;;;;;;;7.97;2.13;;;;;;;-144.47;47.97;52546.25;5031570;28;20029;-66
2023/07/19 00:37:03;;;;;;;8.75;2.40;;;;;;;-144.47;48.69;52530.38;5032646;28;20056;-67
2023/07/19 00:39:28;;;;;;;10.52;2.17;;;;;;;-144.47;49.09;52542.28;5032770;28;20112;-68
2023/07/19 00:41:53;;;;;;;6.50;1.90;;;;;;;-144.47;49.39;52540.31;5032584;28;20418;-67
2023/07/19 00:44:19;;;;;;;6.20;1.98;;;;;;;-144.47;49.56;52562.16;5031665;28;20060;-68
2023/07/19 00:46:45;;;;;;;4.15;1.73;;;;;;;-144.47;49.60;52538.31;5032312;28;20032;-68
2023/07/19 00:49:11;;;;;;;9.55;1.70;;;;;;;-144.47;50.06;52550.25;5032089;28;20442;-66
2023/07/19 00:51:37;;;;;;;4.65;2.10;;;;;;;-144.47;50.30;52532.38;5030604;28;20036;-65
2023/07/19 00:54:05;;;;;;;7.43;2.45;;;;;;;-144.47;50.51;52538.31;5030293;28;20125;-66
2023/07/19 00:56:32;;;;;;;8.23;2.20;;;;;;;-144.47;50.45;52534.34;5032313;28;20087;-67
2023/07/19 00:58:58;;;;;;;5.55;2.40;;;;;;;-144.47;50.48;52568.13;5031978;28;20150;-69
2023/07/19 01:01:24;;;;;;;17.90;2.65;;;;;;;-144.47;50.30;52550.25;5032163;28;20091;-68
2023/07/19 01:03:49;;;;;;;7.43;2.13;;;;;;;-144.47;50.38;52556.19;5030797;28;20414;-68
2023/07/19 01:06:17;;;;;;;4.95;2.05;;;;;;;-144.47;50.35;52554.22;5031894;28;20374;-66
2023/07/19 01:08:42;;;;;;;9.65;2.42;;;;;;;-144.47;50.40;52548.25;5030147;28;20444;-67
2023/07/19 01:11:07;;;;;;;13.18;2.00;;;;;;;-144.47;50.71;52534.34;5031834;28;20025;-68
2023/07/19 01:13:33;;;;;;;12.90;2.30;;;;;;;-144.47;50.99;52524.41;5030798;28;20044;-68
2023/07/19 01:15:58;;;;;;;7.55;2.20;;;;;;;-144.47;50.84;52552.22;5031929;28;20108;-67
2023/07/19 01:18:24;;;;;;;9.00;2.17;;;;;;;-144.47;51.34;52542.28;5031753;28;20029;-67
2023/07/19 01:20:49;;;;;;;4.70;2.00;;;;;;;-144.47;51.63;52538.31;5031442;28;20035;-66
2023/07/19 01:23:15;;;;;;;8.02;2.50;;;;;;;-144.47;51.67;52536.34;5031111;28;20025;-68
2023/07/19 01:25:40;;;;;;;9.30;2.35;;;;;;;-144.47;51.98;52538.31;5031689;28;20022;-66
2023/07/19 01:28:05;;;;;;;6.18;2.20;;;;;;;-144.47;52.64;52542.28;5031428;28;20086;-67
2023/07/19 01:30:31;;;;;;;6.32;2.20;;;;;;;-144.47;52.65;52546.25;5031795;28;20029;-64
2023/07/19 01:32:56;;;;;;;6.55;2.40;;;;;;;-144.47;53.10;52540.31;5027701;28;20036;-67
2023/07/19 01:35:22;;;;;;;5.38;2.00;;;;;;;-144.47;53.30;52558.19;5030606;28;20048;-67
2023/07/19 01:37:48;;;;;;;10.95;2.20;;;;;;;-144.47;53.23;52526.41;5029988;28;20022;-69
2023/07/19 01:40:14;;;;;;;8.25;2.13;;;;;;;-144.47;53.53;52540.31;5031424;28;20523;-68
2023/07/19 01:42:40;;;;;;;5.20;1.88;;;;;;;-144.47;53.63;52564.13;5031527;28;20057;-66
2023/07/19 01:45:05;;;;;;;8.18;2.38;;;;;;;-144.47;53.86;52564.13;5029153;28;20067;-66
2023/07/19 01:47:31;;;;;;;5.30;2.30;;;;;;;-144.47;54.18;52540.31;5031401;28;20107;-65
2023/07/19 01:49:56;;;;;;;5.07;2.08;;;;;;;-144.47;54.67;52522.44;5031087;28;20071;-67
2023/07/19 01:52:22;;;;;;;5.20;2.13;;;;;;;-144.47;54.97;52566.13;5031114;28;20434;-66
2023/07/19 01:54:47;;;;;;;9.43;2.47;;;;;;;-144.47;54.98;52556.19;5030680;28;20171;-66
2023/07/19 01:57:12;;;;;;;8.80;2.05;;;;;;;-144.47;55.29;52538.31;5031316;28;20431;-67
2023/07/19 01:59:38;;;;;;;5.38;2.22;;;;;;;-144.47;55.27;52544.28;5029285;28;20030;-66
2023/07/19 02:02:04;;;;;;;12.07;2.45;;;;;;;-144.47;55.34;52544.28;5030816;28;20044;-68
2023/07/19 02:04:29;;;;;;;7.50;2.78;;;;;;;-144.47;55.61;52540.31;5030036;28;20159;-67
2023/07/19 02:06:55;;;;;;;6.32;2.05;;;;;;;-144.47;55.77;52576.06;5028947;28;20108;-67
2023/07/19 02:09:21;;;;;;;7.22;2.20;;;;;;;-144.47;56.12;52540.31;5035357;28;20387;-69
2023/07/19 02:11:47;;;;;;;5.50;2.00;;;;;;;-144.47;56.21;52546.25;5030709;28;20022;-67
2023/07/19 02:14:12;;;;;;;7.57;1.95;;;;;;;-144.47;56.00;52560.16;5029919;28;20479;-67
2023/07/19 02:16:38;;;;;;;8.73;2.13;;;;;;;-144.47;56.35;52558.19;5031137;28;20282;-67
2023/07/19 02:19:05;;;;;;;7.75;2.45;;;;;;;-144.47;56.56;52562.16;5030227;28;20041;-64
2023/07/19 02:21:31;;;;;;;5.55;2.03;;;;;;;-144.47;56.61;52564.13;5030129;28;20025;-66
2023/07/19 02:23:57;;;;;;;14.15;2.60;;;;;;;-144.47;57.08;52582.00;5029740;28;20052;-68
2023/07/19 02:26:23;;;;;;;8.90;3.15;;;;;;;-144.47;57.10;52552.22;5030791;28;20021;-66
2023/07/19 02:28:49;;;;;;;12.95;2.50;;;;;;;-144.47;57.21;52536.34;5030033;28;20028;-66
2023/07/19 02:31:14;;;;;;;9.82;2.38;;;;;;;-144.47;57.19;52542.28;5028319;28;20079;-66
2023/07/19 02:33:40;;;;;;;8.98;2.55;;;;;;;-144.47;57.06;52554.22;5027184;28;20161;-65
2023/07/19 02:36:05;;;;;;;16.15;2.92;;;;;;;-144.47;57.11;52550.25;5030243;28;20079;-66
2023/07/19 02:38:31;;;;;;;7.22;3.38;;;;;;;-144.47;56.94;52562.16;5028782;28;20036;-67
2023/07/19 02:40:59;;;;;;;10.15;2.63;;;;;;;-144.47;57.39;52560.16;5030062;28;20036;-67
2023/07/19 02:43:24;;;;;;;7.40;2.50;;;;;;;-144.47;57.93;52542.28;5028205;28;20418;-66
2023/07/19 02:45:52;;;;;;;12.10;2.35;;;;;;;-144.47;58.39;52570.09;5029766;28;20442;-64
2023/07/19 02:48:18;;;;;;;5.57;2.20;;;;;;;-144.47;59.03;52556.19;5029996;28;20024;-67
2023/07/19 02:50:45;;;;;;;5.53;2.28;;;;;;;-144.47;59.33;52550.25;5029538;28;20029;-63
2023/07/19 02:53:10;;;;;;;10.30;2.40;;;;;;;-144.47;59.81;52534.34;5029751;28;20025;-67
2023/07/19 02:55:36;;;;;;;7.18;2.85;;;;;;;-144.47;60.50;52556.19;5029535;28;20616;-68
2023/07/19 02:58:01;;;;;;;27.27;3.97;;;;;;;-144.47;61.45;52554.22;5030178;28;20037;-68
2023/07/19 03:00:27;;;;;;;13.45;2.83;;;;;;;-144.47;61.89;52548.25;5029292;28;20275;-68
2023/07/19 03:02:53;;;;;;;20.95;4.32;;;;;;;-144.47;62.40;52530.38;5029748;28;20030;-67
2023/07/19 03:05:20;;;;;;;14.75;3.97;;;;;;;-144.47;62.56;52544.28;5028995;28;20029;-67
2023/07/19 03:07:46;;;;;;;11.38;2.47;;;;;;;-144.47;62.93;52534.34;5028182;28;20029;-68
2023/07/19 03:12:51;;;;;;;12.38;2.33;;;;;;;-144.47;62.96;52538.31;5048559;28;20045;-61
2023/07/19 03:15:16;;;;;;;5.00;2.58;;;;;;;-144.47;63.62;52556.19;5048908;28;20036;-62
2023/07/19 03:17:41;;;;;;;6.05;2.20;;;;;;;-144.47;64.15;52556.19;5050071;28;20029;-62
2023/07/19 03:20:08;;;;;;;10.18;2.60;;;;;;;-144.47;64.62;52568.13;5048689;28;20504;-62
2023/07/19 03:22:33;;;;;;;9.48;2.47;;;;;;;-144.47;65.56;52570.09;5059790;28;20024;-63
2023/07/19 03:24:59;;;;;;;11.07;3.10;;;;;;;-144.47;65.97;52542.28;5054787;28;20026;-64
2023/07/19 03:27:24;;;;;;;8.15;2.50;;;;;;;-144.47;66.60;52564.13;5059417;28;20136;-62
2023/07/19 03:29:49;;;;;;;6.80;2.75;;;;;;;-144.47;67.31;52572.09;5062254;28;20076;-62
2023/07/19 03:32:15;;;;;;;6.63;2.58;;;;;;;-144.47;67.70;52548.25;5045538;28;20025;-64
2023/07/19 03:34:40;;;;;;;9.82;3.08;;;;;;;-144.47;68.35;52538.31;5058828;28;20401;-60
2023/07/19 03:37:06;;;;;;;10.13;2.75;;;;;;;-144.47;68.52;52564.13;5059110;28;20047;-62
2023/07/19 03:39:31;;;;;;;7.68;3.17;;;;;;;-144.47;70.26;52516.47;5059431;28;20021;-63
2023/07/19 03:41:57;;;;;;;11.00;3.05;;;;;;;-144.47;70.36;52552.22;5059509;28;20274;-64
2023/07/19 03:44:22;;;;;;;14.23;3.00;;;;;;;-144.47;70.91;52580.03;5054576;28;20071;-63
2023/07/19 03:46:48;;;;;;;7.70;3.00;;;;;;;-144.47;71.35;52536.34;5059272;28;20036;-64
2023/07/19 03:49:13;;;;;;;18.75;3.70;;;;;;;-144.47;71.70;52570.09;5062608;28;20029;-63
2023/07/19 03:51:38;;;;;;;14.00;2.85;;;;;;;-144.47;72.06;52582.00;5059060;28;20028;-64
2023/07/19 03:54:04;;;;;;;6.43;2.40;;;;;;;-144.47;73.30;52566.13;5036952;28;20020;-64
2023/07/19 03:56:29;;;;;;;9.23;2.70;;;;;;;-144.47;73.18;52574.06;5059600;28;20471;-62
2023/07/19 03:58:54;;;;;;;6.13;2.63;;;;;;;-144.47;72.45;52566.13;5062160;28;20100;-63
2023/07/19 04:01:20;;;;;;;26.20;3.08;;;;;;;-144.47;71.90;52542.28;5060100;28;20021;-60
2023/07/19 04:03:45;;;;;;;9.30;3.20;;;;;;;-144.47;71.99;52560.16;5058379;28;20024;-63
2023/07/19 04:06:10;;;;;;;11.77;2.75;;;;;;;-144.47;72.58;52558.19;5063803;28;20021;-57
2023/07/19 04:08:36;;;;;;;11.25;3.15;;;;;;;-144.47;73.05;52568.13;5061048;28;20115;-62
2023/07/19 04:11:01;;;;;;;11.48;2.97;;;;;;;-144.47;73.15;52591.94;5056991;28;20036;-62
2023/07/19 04:13:27;;;;;;;11.30;3.05;;;;;;;-144.47;73.02;52546.25;5065920;28;20025;-63
2023/07/19 04:15:53;;;;;;;8.30;3.25;;;;;;;-144.47;72.38;52578.03;5061491;28;20020;-64
2023/07/19 04:18:18;;;;;;;18.15;3.65;;;;;;;-144.47;72.04;52546.25;5059492;28;20029;-63
2023/07/19 04:20:44;;;;;;;18.73;3.08;;;;;;;-144.47;72.27;52562.16;5062892;28;20027;-63
2023/07/19 04:23:09;;;;;;;24.73;3.28;;;;;;;-144.47;71.92;52576.06;5065510;28;20024;-64
2023/07/19 04:25:35;;;;;;;15.75;2.92;;;;;;;-144.47;71.68;52556.19;5061651;28;20059;-63
2023/07/19 04:28:00;;;;;;;18.23;4.03;;;;;;;-144.47;71.36;52554.22;5059959;28;20043;-62
2023/07/19 04:30:26;;;;;;;9.68;3.20;;;;;;;-144.47;71.33;52544.28;5044963;28;20496;-63
2023/07/19 04:32:54;;;;;;;16.85;2.80;;;;;;;-144.47;70.94;52558.19;5047437;28;20032;-63
2023/07/19 04:35:20;;;;;;;;;;;;;;;-144.47;70.19;52576.06;5062722;28;20107;-62
2023/07/19 04:37:45;;;;;;;16.15;2.42;;;;;;;-144.47;69.16;52558.19;5065255;28;20119;-64
2023/07/19 04:40:11;;;;;;;7.53;2.53;;;;;;;-144.47;68.40;52546.25;5063349;28;20033;-62
2023/07/19 04:42:36;;;;;;;17.60;2.95;;;;;;;-144.47;66.76;52560.16;5065803;28;20024;-63
2023/07/19 04:45:02;;;;;;;16.88;2.88;;;;;;;-144.47;65.27;52568.13;5060010;28;20459;-64
2023/07/19 04:47:28;;;;;;;16.25;2.95;;;;;;;-144.47;65.08;52546.25;5058794;28;20394;-60
2023/07/19 04:49:53;;;;;;;8.68;2.42;;;;;;;-144.47;64.94;52582.00;5063718;28;20056;-62
2023/07/19 04:52:18;;;;;;;17.70;2.88;;;;;;;-144.47;64.53;52574.06;5065026;28;20071;-63
2023/07/19 04:54:47;;;;;;;12.55;3.08;;;;;;;-144.47;63.85;52560.16;5060036;28;20031;-63
2023/07/19 04:57:12;;;;;;;;;;;;;;;-144.47;63.44;52574.06;5059270;28;20029;-63
2023/07/19 04:59:38;;;;;;;14.68;3.05;;;;;;;-144.47;62.93;52554.22;5053404;28;19914;-63
2023/07/19 05:02:03;;;;;;;12.55;2.45;;;;;;;-144.47;63.11;52546.25;5058436;28;20055;-64
2023/07/19 05:04:29;;;;;;;9.50;2.28;;;;;;;-144.47;62.05;52562.16;5063493;28;20029;-63
2023/07/19 05:06:54;;;;;;;12.30;2.78;;;;;;;-144.47;60.52;52550.25;5064403;28;20031;-62
2023/07/19 05:09:20;;;;;;;8.80;2.70;;;;;;;-144.47;60.25;52534.34;5054115;28;20033;-62
2023/07/19 05:11:46;;;;;;;11.57;2.72;;;;;;;-144.47;60.41;52550.25;5057606;28;20029;-63
2023/07/19 05:14:11;;;;;;;9.65;2.25;;;;;;;-144.47;59.56;52542.28;5061310;28;20028;-64
2023/07/19 05:16:37;;;;;;;15.07;2.90;;;;;;;-144.47;59.51;52548.25;5065438;28;20044;-60
2023/07/19 05:19:02;;;;;;;9.50;2.78;;;;;;;-144.47;58.25;52566.13;5059844;28;20063;-64
2023/07/19 05:21:28;;;;;;;11.52;2.72;;;;;;;-144.47;57.69;52556.19;5058326;28;20017;-65
2023/07/19 05:23:53;;;;;;;14.82;2.58;;;;;;;-144.47;57.08;52530.38;5063814;28;20064;-64
2023/07/19 05:26:19;;;;;;;10.20;2.60;;;;;;;-144.47;56.96;52534.34;5051090;28;20060;-60
2023/07/19 05:28:45;;;;;;;13.07;2.55;;;;;;;-144.47;56.75;52538.31;5051539;28;20406;-64
2023/07/19 05:31:11;;;;;;;14.38;2.10;;;;;;;-144.47;56.83;52518.47;5049510;28;20025;-64
2023/07/19 05:33:37;;;;;;;18.67;2.63;;;;;;;-144.47;56.44;52546.25;5055260;28;20047;-59
2023/07/19 05:36:02;;;;;;;11.60;2.38;;;;;;;-144.47;55.49;52552.22;5046469;28;20116;-64
2023/07/19 05:38:28;;;;;;;6.15;2.00;;;;;;;-144.47;55.41;52542.28;5041353;28;20047;-64
2023/07/19 05:41:03;;;;;;;13.30;2.60;;;;;;;-144.47;55.05;52538.31;5057769;28;20031;-63
2023/07/19 05:43:32;;;;;;;17.48;2.65;;;;;;;-144.47;55.37;52554.22;5061357;28;20025;-62
2023/07/19 05:46:05;;;;;;;16.80;2.65;;;;;;;-144.47;54.43;52540.31;5050051;28;20044;-63
2023/07/19 05:48:31;;;;;;;7.20;2.40;;;;;;;-144.47;53.60;52540.31;5060759;28;20124;-63
2023/07/19 05:50:56;;;;;;;12.73;2.88;;;;;;;-144.47;53.77;52538.31;5064929;28;20151;-61
2023/07/19 05:53:22;;;;;;;9.43;2.42;;;;;;;-144.47;53.18;52560.16;5061060;28;20498;-62
2023/07/19 05:55:47;;;;;;;9.18;2.78;;;;;;;-144.47;52.65;52566.13;5057278;28;20027;-64
2023/07/19 05:58:12;;;;;;;6.97;2.05;;;;;;;-144.47;51.77;52554.22;5060267;28;20025;-63
2023/07/19 06:00:40;;;;;;;8.80;1.83;;;;;;;-144.47;51.52;52534.34;5063603;28;20360;-62
2023/07/19 06:03:05;;;;;;;5.75;1.85;;;;;;;-144.47;50.84;52552.22;5061249;28;20035;-61
2023/07/19 06:05:31;;;;;;;7.95;2.38;;;;;;;-144.47;49.78;52570.09;5056081;28;20021;-64
2023/07/19 06:07:56;;;;;;;6.32;1.92;;;;;;;-144.47;48.66;52544.28;5058076;28;20029;-64
2023/07/19 06:10:21;;;;;;;5.95;1.80;;;;;;;-144.47;48.69;52558.19;5055996;28;20047;-63
2023/07/19 06:12:47;;;;;;;5.82;2.00;;;;;;;-144.47;47.60;52532.38;5061712;28;20020;-64
2023/07/19 06:15:12;;;;;;;9.90;1.88;;;;;;;-144.47;47.24;52522.44;5051877;28;20037;-64
2023/07/19 06:17:38;;;;;;;4.78;1.50;;;;;;;-144.47;46.77;52540.31;5050539;28;20025;-60
2023/07/19 06:20:04;;;;;;;5.03;1.67;;;;;;;-144.47;46.47;52558.19;5053784;28;20029;-64
2023/07/19 06:22:30;;;;;;;4.43;1.73;;;;;;;-144.47;46.13;52530.38;5041213;28;20017;-63
2023/07/19 06:24:57;;;;;;;10.25;2.03;;;;;;;-144.47;46.30;52538.31;5062429;28;20032;-64
2023/07/19 06:27:23;;;;;;;5.18;1.90;;;;;;;-144.47;46.52;52532.38;5060714;28;20030;-61
2023/07/19 06:29:50;;;;;;;6.75;1.75;;;;;;;-144.47;46.18;52538.31;5057467;28;20456;-57
2023/07/19 06:32:15;;;;;;;5.88;2.08;;;;;;;-144.47;45.87;52558.19;5050106;28;20108;-62
2023/07/19 06:34:40;;;;;;;7.05;1.90;;;;;;;-144.47;46.06;52544.28;5059266;28;20116;-59
2023/07/19 06:37:06;;;;;;;7.25;1.83;;;;;;;-144.47;46.26;52530.38;5059914;28;20272;-63
2023/07/19 06:39:31;;;;;;;4.18;1.95;;;;;;;-144.47;46.15;52552.22;5064160;28;20032;-62
2023/07/19 06:41:56;;;;;;;6.00;1.92;;;;;;;-144.47;46.08;52536.34;5060571;28;20116;-62
2023/07/19 06:44:22;;;;;;;7.57;1.92;;;;;;;-144.47;45.82;52564.13;5055619;28;20032;-61
2023/07/19 06:46:47;;;;;;;15.23;2.05;;;;;;;-144.47;45.41;52546.25;5061410;28;20402;-61
2023/07/19 06:49:13;;;;;;;10.55;2.13;;;;;;;-144.47;44.81;52562.16;5063351;28;20545;-62
2023/07/19 06:51:38;;;;;;;12.98;2.03;;;;;;;-144.47;45.00;52548.25;5059554;28;20419;-62
2023/07/19 06:54:04;;;;;;;7.80;1.83;;;;;;;-144.47;43.56;52524.41;5056141;28;20021;-64
2023/07/19 06:56:29;;;;;;;4.68;1.75;;;;;;;-144.47;43.54;52546.25;5063282;28;20044;-62
2023/07/19 06:58:54;;;;;;;5.15;2.00;;;;;;;-144.47;43.36;52542.28;5064215;28;20024;-63
2023/07/19 07:01:20;;;;;;;6.95;2.50;;;;;;;-144.47;43.09;52544.28;5061161;28;20024;-64
2023/07/19 07:03:46;;;;;;;8.10;2.13;;;;;;;-144.47;42.17;52532.38;5057188;28;20053;-62
2023/07/19 07:06:12;;;;;;;10.95;2.13;;;;;;;-144.47;42.04;52556.19;5063947;28;20071;-64
2023/07/19 07:08:37;;;;;;;11.95;2.00;;;;;;;-144.47;41.85;52548.25;5059014;28;20088;-60
2023/07/19 07:11:04;;;;;;;13.18;2.47;;;;;;;-144.47;41.59;52534.34;5058617;28;20036;-64
2023/07/19 07:13:30;;;;;;;9.02;1.80;;;;;;;-144.47;41.24;52548.25;5064253;28;20029;-63
2023/07/19 07:15:55;;;;;;;6.25;2.40;;;;;;;-144.47;41.20;52562.16;5059439;28;20039;-63
2023/07/19 07:18:21;;;;;;;10.20;1.80;;;;;;;-144.47;40.91;52540.31;5056207;28;20107;-63
2023/07/19 07:20:46;;;;;;;6.35;2.38;;;;;;;-144.47;41.20;52570.09;5058343;28;20054;-63
2023/07/19 07:23:11;;;;;;;7.57;1.70;;;;;;;-144.47;40.91;52550.25;5037164;28;20032;-61
2023/07/19 07:25:37;;;;;;;11.52;1.95;;;;;;;-144.47;40.73;52570.09;5060675;28;20397;-59
2023/07/19 07:28:04;;;;;;;8.32;1.95;;;;;;;-144.47;39.95;52564.13;5064135;28;20028;-63
2023/07/19 07:30:30;;;;;;;4.15;1.23;;;;;;;-144.47;39.61;52576.06;5067208;28;20031;-62
2023/07/19 07:32:55;;;;;;;5.18;1.90;;;;;;;-144.47;38.72;52568.13;5048038;28;20103;-64
2023/07/19 07:35:20;;;;;;;6.88;1.60;;;;;;;-144.47;38.44;52548.25;5043405;28;20024;-62
2023/07/19 07:37:46;;;;;;;6.35;1.80;;;;;;;-144.47;37.82;52548.25;5037217;28;20033;-62
2023/07/19 07:40:12;;;;;;;7.78;1.88;;;;;;;-144.47;37.48;52580.03;5068782;28;20028;-64
2023/07/19 07:42:38;;;;;;;4.70;1.67;;;;;;;-144.47;36.71;52566.13;5055364;28;20587;-64
2023/07/19 07:45:05;;;;;;;18.60;2.47;;;;;;;-144.47;35.62;52582.00;5059622;28;20021;-64
2023/07/19 07:47:31;;;;;;;10.55;1.77;;;;;;;-144.47;35.24;52589.97;5062959;28;20047;-64
2023/07/19 07:49:57;;;;;;;11.50;1.75;;;;;;;-144.47;34.64;52580.03;5057927;28;20044;-61
2023/07/19 07:52:22;;;;;;;5.45;1.60;;;;;;;-144.47;34.85;52570.09;5055504;28;20049;-64
2023/07/19 07:54:49;;;;;;;6.15;1.67;;;;;;;-144.47;35.00;52566.13;5045935;28;20482;-63
2023/07/19 07:57:14;;;;;;;4.60;1.75;;;;;;;-144.47;34.55;52593.94;5055546;28;20078;-63
2023/07/19 07:59:40;;;;;;;5.47;1.70;;;;;;;-144.47;34.67;52591.94;5060437;28;20107;-63
2023/07/19 08:02:06;;;;;;;3.83;1.58;;;;;;;-144.47;34.54;52587.97;5062088;28;20028;-62
2023/07/19 08:04:31;;;;;;;6.55;1.83;;;;;;;-144.47;34.27;52593.94;5057140;28;20032;-62
2023/07/19 08:06:57;;;;;;;9.30;1.92;;;;;;;-144.47;33.97;52613.78;5054166;28;20017;-63
2023/07/19 08:09:22;;;;;;;5.50;1.85;;;;;;;-144.47;34.10;52605.84;5051822;28;20035;-61
2023/07/19 08:11:48;;;;;;;5.38;1.60;;;;;;;-144.47;33.99;52621.72;5054811;28;20071;-62
2023/07/19 08:14:14;;;;;;;11.90;2.45;;;;;;;-144.47;33.85;52603.84;5059180;28;20548;-64
2023/07/19 08:16:39;;;;;;;4.88;1.90;;;;;;;-144.47;34.03;52597.91;5062522;28;20070;-64
2023/07/19 08:19:04;;;;;;;4.88;1.80;;;;;;;-144.47;33.17;52595.91;5057316;28;20028;-63
2023/07/19 08:21:30;;;;;;;5.68;1.65;;;;;;;-144.47;33.42;52605.84;5037082;28;20040;-62
2023/07/19 08:23:55;;;;;;;5.40;1.40;;;;;;;-144.47;33.41;52619.75;5059717;28;20028;-59
2023/07/19 08:26:22;;;;;;;7.32;1.92;;;;;;;-144.47;33.25;52597.91;5050777;28;20124;-63
2023/07/19 08:28:47;;;;;;;10.65;1.95;;;;;;;-144.47;33.47;52621.72;5060003;28;20063;-59
2023/07/19 08:31:14;;;;;;;6.32;1.83;;;;;;;-144.47;33.70;52603.84;5054457;28;20052;-63
2023/07/19 08:33:39;;;;;;;11.60;2.00;;;;;;;-144.47;33.43;52599.88;5052817;28;20020;-63
2023/07/19 08:36:05;;;;;;;9.40;2.50;;;;;;;-144.47;33.27;52609.81;5062071;28;20043;-58
2023/07/19 08:38:30;;;;;;;11.90;2.17;;;;;;;-144.47;33.15;52599.88;5057305;28;20056;-63
2023/07/19 08:41:02;;;;;;;6.25;1.65;;;;;;;-144.47;32.85;52603.84;5062068;28;20623;-62
2023/07/19 08:43:29;;;;;;;7.32;1.88;;;;;;;-144.47;32.50;52621.72;5058166;28;20478;-61
2023/07/19 08:45:55;;;;;;;5.47;1.65;;;;;;;-144.47;32.25;52607.84;5055020;28;20063;-64
2023/07/19 08:48:21;;;;;;;11.40;2.13;;;;;;;-144.47;32.50;52621.72;5061208;28;20025;-64
2023/07/19 08:50:58;;;;;;;5.68;1.73;;;;;;;-144.47;32.26;52629.69;5065239;28;20028;-63
2023/07/19 08:53:25;;;;;;;6.20;1.65;;;;;;;-144.47;32.33;52593.94;5062646;28;20222;-62
2023/07/19 08:55:51;;;;;;;5.97;1.88;;;;;;;-144.47;32.80;52601.88;5058786;28;20029;-61
2023/07/19 08:58:17;;;;;;;4.80;1.50;;;;;;;-144.47;32.84;52645.56;5062773;28;20477;-63
2023/07/19 09:00:48;;;;;;;7.72;1.70;;;;;;;-144.47;32.78;52633.66;5058459;28;20145;-64
2023/07/19 09:03:15;;;;;;;6.15;1.75;;;;;;;-144.47;32.45;52615.78;5060447;28;20495;-64
2023/07/19 09:05:40;;;;;;;13.50;2.63;;;;;;;-144.47;32.83;52621.72;5064124;28;20025;-62
2023/07/19 09:08:09;;;;;;;6.40;1.60;;;;;;;-144.47;32.75;52597.91;5058895;28;20473;-63
2023/07/19 09:15:39;;;;;;;7.63;1.80;;;;;;;-144.47;32.53;52621.72;5048072;28;20359;-67
2023/07/19 09:18:05;;;;;;;5.18;2.10;;;;;;;-144.47;32.72;52639.59;5049923;28;20028;-66
2023/07/19 09:20:33;;;;;;;7.35;1.83;;;;;;;-144.47;32.59;52635.63;5050139;28;20025;-65
2023/07/19 09:23:03;;;;;;;;;;;;;;;-144.47;32.49;52623.72;5031851;28;20100;-67
2023/07/19 09:25:28;;;;;;;7.95;1.83;;;;;;;-144.47;32.54;52633.66;5049656;28;20234;-67
2023/07/19 09:27:54;;;;;;;7.93;1.73;;;;;;;-144.47;32.60;52641.59;5049974;28;20092;-64
2023/07/19 09:30:19;;;;;;;5.13;2.08;;;;;;;-144.47;32.45;52631.66;5049425;28;20454;-69
2023/07/19 09:32:58;;;;;;;4.63;1.88;;;;;;;-144.47;32.18;52637.63;5042781;28;20024;-67
2023/07/19 09:35:27;;;;;;;7.60;2.05;;;;;;;-144.47;32.04;52625.72;5049107;28;20029;-64
2023/07/19 09:37:53;;;;;;;6.85;1.90;;;;;;;-144.47;32.12;52631.66;5048996;28;20028;-67
2023/07/19 09:40:19;;;;;;;6.13;2.05;;;;;;;-144.47;32.22;52663.44;5050035;28;20057;-67
2023/07/19 09:42:44;;;;;;;6.53;2.13;;;;;;;-144.47;32.19;52649.53;5049646;28;20033;-66
2023/07/19 09:45:11;;;;;;;7.32;2.15;;;;;;;-144.47;32.35;52645.56;5048697;28;20359;-66
2023/07/19 09:47:39;;;;;;;8.13;1.90;;;;;;;-144.47;32.53;52613.78;5049795;28;20140;-67
2023/07/19 09:50:06;;;;;;;9.98;2.25;;;;;;;-144.47;32.44;52631.66;5049852;28;20028;-68
2023/07/19 09:52:37;;;;;;;8.35;2.28;;;;;;;-144.47;32.23;52617.75;5049432;28;20051;-68
2023/07/19 09:55:04;;;;;;;6.68;2.25;;;;;;;-144.47;32.50;52641.59;5048674;28;20043;-68
2023/07/19 09:57:31;;;;;;;9.38;2.03;;;;;;;-144.47;32.52;52641.59;5049096;28;20122;-67
2023/07/19 09:59:57;;;;;;;7.68;2.00;;;;;;;-144.47;32.42;52609.81;5048138;28;20117;-67
2023/07/19 10:02:23;;;;;;;8.57;2.17;;;;;;;-144.47;32.54;52629.69;5048646;28;20127;-68
2023/07/19 10:04:50;;;;;;;3.83;1.70;;;;;;;-144.47;32.71;52607.84;5029806;28;20036;-68
2023/07/19 10:07:20;;;;;;;8.82;2.72;;;;;;;-144.47;32.21;52669.41;5047150;28;20028;-66
2023/07/19 10:09:47;;;;;;;9.65;1.85;;;;;;;-144.47;32.05;52619.75;5049212;28;20082;-64
2023/07/19 10:12:15;;;;;;;5.10;1.77;;;;;;;-144.47;31.89;52633.66;5030939;28;20102;-67
2023/07/19 10:14:50;;;;;;;;;;;;;;;-144.47;31.63;52633.66;5048270;28;20033;-69
2023/07/19 10:17:15;;;;;;;5.22;1.90;;;;;;;-144.47;31.33;52621.72;5048399;28;19908;-68
2023/07/19 10:20:16;;;;;;;19.83;2.28;;;;;;;-144.47;31.18;52663.44;5047930;28;20082;-67
2023/07/19 10:22:53;;;;;;;5.93;1.70;;;;;;;-144.47;31.65;52631.66;5038350;28;20045;-67
2023/07/19 10:25:35;;;;;;;12.87;2.23;;;;;;;-144.47;31.57;52639.59;5047620;28;20083;-66
2023/07/19 10:28:08;;;;;;;5.00;1.85;;;;;;;-144.47;31.44;52635.63;5049121;28;20037;-67
2023/07/19 10:30:55;;;;;;;3.80;1.73;;;;;;;-144.47;31.11;52621.72;5028329;28;20040;-67
2023/07/19 10:33:28;;;;;;;14.30;3.45;;;;;;;-144.47;30.87;52655.50;5047901;28;20059;-66
2023/07/19 10:35:55;;;;;;;5.50;1.60;;;;;;;-144.47;30.89;52653.50;5047763;28;20039;-66
2023/07/19 10:38:25;;;;;;;8.15;2.05;;;;;;;-144.47;31.21;52649.53;5047759;28;20467;-64
2023/07/19 10:40:56;;;;;;;7.97;2.00;;;;;;;-144.47;31.26;52647.56;5048580;28;20075;-64
2023/07/19 10:43:22;;;;;;;4.63;1.92;;;;;;;-144.47;31.33;52643.56;5047842;28;20056;-64
2023/07/19 10:45:48;;;;;;;8.63;1.60;;;;;;;-144.47;31.28;52639.59;5047332;28;20025;-67
2023/07/19 10:48:13;;;;;;;8.38;2.13;;;;;;;-144.47;31.11;52647.56;5048047;28;20021;-64
2023/07/19 10:50:41;;;;;;;5.03;1.65;;;;;;;-144.47;31.23;52657.47;5048057;28;20037;-69
2023/07/19 10:53:07;;;;;;;5.97;1.63;;;;;;;-144.47;31.23;52663.44;5049146;28;20023;-68
2023/07/19 10:55:32;;;;;;;7.32;1.90;;;;;;;-144.47;31.06;52653.50;5047980;28;20033;-66
2023/07/19 10:57:57;;;;;;;9.20;1.88;;;;;;;-144.47;31.15;52655.50;5048295;28;20059;-66
2023/07/19 11:00:23;;;;;;;9.85;2.00;;;;;;;-144.47;30.74;52663.44;5047217;28;20017;-67
2023/07/19 11:02:48;;;;;;;6.45;1.70;;;;;;;-144.47;30.41;52657.47;5047003;28;20045;-66
2023/07/19 11:05:15;;;;;;;5.38;1.63;;;;;;;-144.47;30.14;52675.34;5046547;28;20193;-68
2023/07/19 11:07:41;;;;;;;6.80;1.80;;;;;;;-144.47;29.70;52689.25;5046549;28;20063;-63
2023/07/19 11:10:07;;;;;;;7.13;2.00;;;;;;;-144.47;29.79;52679.31;5044613;28;20087;-67
2023/07/19 11:12:33;;;;;;;3.97;1.58;;;;;;;-144.47;29.58;52669.41;5052126;28;20565;-67
2023/07/19 11:15:00;;;;;;;4.05;1.50;;;;;;;-144.47;29.59;52665.44;5046304;28;20063;-66
2023/07/19 11:17:27;;;;;;;6.25;1.92;;;;;;;-144.47;29.55;52673.38;5047958;28;20021;-68
2023/07/19 11:19:53;;;;;;;4.38;1.60;;;;;;;-144.47;29.62;52677.34;5047370;28;20633;-66